Aviation Digital Data Service (ADDS)

Output produced by METARs form (1501 UTC 22 April 2019)
found at http://www.aviationweather.gov/metar/data/
 
METAR text: UWLW 221400Z 36002MPS 8000 NSC 17/M04 Q1022 R20/CLRD60 NOSIG RMK QFE761
Conditions at: UWLW (ULYANOVSK , RU) observed 1400 UTC 22 April 2019
Temperature: 17.0°C (63°F)
Dewpoint: -4.0°C (25°F) [RH = 23%]
Pressure (altimeter): 30.18 inches Hg (1022.0 mb)
Winds: from the N (360 degrees) at 5 MPH (4 knots; 2.1 m/s)
Visibility: 5 miles ( 8 km)
Ceiling: at least 12,000 feet AGL
Clouds: sky clear below 12,000 feet AGL
Weather: no significant weather observed at this time

METAR text: UWLW 221300Z 01004MPS 8000 NSC 18/M04 Q1023 R20/CLRD60 NOSIG RMK QFE761
Conditions at: UWLW (ULYANOVSK , RU) observed 1300 UTC 22 April 2019
Temperature: 18.0°C (64°F)
Dewpoint: -4.0°C (25°F) [RH = 22%]
Pressure (altimeter): 30.21 inches Hg (1023.0 mb)
Winds: from the N (10 degrees) at 9 MPH (8 knots; 4.1 m/s)
Visibility: 5 miles ( 8 km)
Ceiling: at least 12,000 feet AGL
Clouds: sky clear below 12,000 feet AGL
Weather: no significant weather observed at this time

METAR text: UWLW 221200Z 03003MPS 360V080 8000 FEW040 17/M04 Q1023 R20/CLRD60 NOSIG RMK QFE762
Conditions at: UWLW (ULYANOVSK , RU) observed 1200 UTC 22 April 2019
Temperature: 17.0°C (63°F)
Dewpoint: -4.0°C (25°F) [RH = 23%]
Pressure (altimeter): 30.21 inches Hg (1023.0 mb)
Winds: from the NNE (30 degrees) at 7 MPH (6 knots; 3.1 m/s)
Visibility: 5 miles ( 8 km)
Ceiling: at least 12,000 feet AGL
Clouds: few clouds at 4000 feet AGL
Weather: no significant weather observed at this time

METAR text: UWLW 221100Z 32003MPS 280V050 8000 FEW040 17/M03 Q1024 R20/CLRD60 NOSIG RMK QFE762
Conditions at: UWLW (ULYANOVSK , RU) observed 1100 UTC 22 April 2019
Temperature: 17.0°C (63°F)
Dewpoint: -3.0°C (27°F) [RH = 25%]
Pressure (altimeter): 30.24 inches Hg (1024.0 mb)
Winds: from the NW (320 degrees) at 7 MPH (6 knots; 3.1 m/s)
Visibility: 5 miles ( 8 km)
Ceiling: at least 12,000 feet AGL
Clouds: few clouds at 4000 feet AGL
Weather: no significant weather observed at this time

METAR text: UWLW 221000Z 01003MPS 8000 FEW040 17/M04 Q1025 R20/CLRD60 NOSIG RMK QFE763
Conditions at: UWLW (ULYANOVSK , RU) observed 1000 UTC 22 April 2019
Temperature: 17.0°C (63°F)
Dewpoint: -4.0°C (25°F) [RH = 23%]
Pressure (altimeter): 30.27 inches Hg (1025.0 mb)
Winds: from the N (10 degrees) at 7 MPH (6 knots; 3.1 m/s)
Visibility: 5 miles ( 8 km)
Ceiling: at least 12,000 feet AGL
Clouds: few clouds at 4000 feet AGL
Weather: no significant weather observed at this time

METAR text: UWLW 220900Z 03003MPS 8000 FEW040 16/M04 Q1025 R20/CLRD60 NOSIG RMK QFE763
Conditions at: UWLW (ULYANOVSK , RU) observed 0900 UTC 22 April 2019
Temperature: 16.0°C (61°F)
Dewpoint: -4.0°C (25°F) [RH = 25%]
Pressure (altimeter): 30.27 inches Hg (1025.0 mb)
Winds: from the NNE (30 degrees) at 7 MPH (6 knots; 3.1 m/s)
Visibility: 5 miles ( 8 km)
Ceiling: at least 12,000 feet AGL
Clouds: few clouds at 4000 feet AGL
Weather: no significant weather observed at this time

METAR text: UWLW 220800Z 01003MPS 310V060 8000 NSC 15/M04 Q1026 R20/CLRD60 NOSIG RMK QFE764
Conditions at: UWLW (ULYANOVSK , RU) observed 0800 UTC 22 April 2019
Temperature: 15.0°C (59°F)
Dewpoint: -4.0°C (25°F) [RH = 27%]
Pressure (altimeter): 30.30 inches Hg (1026.0 mb)
Winds: from the N (10 degrees) at 7 MPH (6 knots; 3.1 m/s)
Visibility: 5 miles ( 8 km)
Ceiling: at least 12,000 feet AGL
Clouds: sky clear below 12,000 feet AGL
Weather: no significant weather observed at this time

METAR text: UWLW 220700Z 33003MPS 290V020 8000 NSC 15/M04 Q1026 R20/CLRD60 NOSIG RMK QFE764
Conditions at: UWLW (ULYANOVSK , RU) observed 0700 UTC 22 April 2019
Temperature: 15.0°C (59°F)
Dewpoint: -4.0°C (25°F) [RH = 27%]
Pressure (altimeter): 30.30 inches Hg (1026.0 mb)
Winds: from the NNW (330 degrees) at 7 MPH (6 knots; 3.1 m/s)
Visibility: 5 miles ( 8 km)
Ceiling: at least 12,000 feet AGL
Clouds: sky clear below 12,000 feet AGL
Weather: no significant weather observed at this time

METAR text: UWLW 220600Z 32003MPS 280V360 8000 NSC 13/M03 Q1026 R20/CLRD60 NOSIG RMK QFE764
Conditions at: UWLW (ULYANOVSK , RU) observed 0600 UTC 22 April 2019
Temperature: 13.0°C (55°F)
Dewpoint: -3.0°C (27°F) [RH = 33%]
Pressure (altimeter): 30.30 inches Hg (1026.0 mb)
Winds: from the NW (320 degrees) at 7 MPH (6 knots; 3.1 m/s)
Visibility: 5 miles ( 8 km)
Ceiling: at least 12,000 feet AGL
Clouds: sky clear below 12,000 feet AGL
Weather: no significant weather observed at this time

METAR text: UWLW 220500Z 23002MPS 8000 NSC 11/M02 Q1026 R20/CLRD60 NOSIG RMK QFE764
Conditions at: UWLW (ULYANOVSK , RU) observed 0500 UTC 22 April 2019
Temperature: 11.0°C (52°F)
Dewpoint: -2.0°C (28°F) [RH = 40%]
Pressure (altimeter): 30.30 inches Hg (1026.0 mb)
Winds: from the SW (230 degrees) at 5 MPH (4 knots; 2.1 m/s)
Visibility: 5 miles ( 8 km)
Ceiling: at least 12,000 feet AGL
Clouds: sky clear below 12,000 feet AGL
Weather: no significant weather observed at this time

METAR text: UWLW 220400Z 21001MPS 8000 NSC 06/M01 Q1026 R20/CLRD60 NOSIG RMK QFE764
Conditions at: UWLW (ULYANOVSK , RU) observed 0400 UTC 22 April 2019
Temperature: 6.0°C (43°F)
Dewpoint: -1.0°C (30°F) [RH = 61%]
Pressure (altimeter): 30.30 inches Hg (1026.0 mb)
Winds: from the SSW (210 degrees) at 2 MPH (2 knots; 1.0 m/s)
Visibility: 5 miles ( 8 km)
Ceiling: at least 12,000 feet AGL
Clouds: sky clear below 12,000 feet AGL
Weather: no significant weather observed at this time

METAR text: UWLW 220300Z 20002MPS 8000 NSC 01/M02 Q1026 R20/CLRD60 NOSIG RMK QFE764
Conditions at: UWLW (ULYANOVSK , RU) observed 0300 UTC 22 April 2019
Temperature: 1.0°C (34°F)
Dewpoint: -2.0°C (28°F) [RH = 80%]
Pressure (altimeter): 30.30 inches Hg (1026.0 mb)
Winds: from the SSW (200 degrees) at 5 MPH (4 knots; 2.1 m/s)
Visibility: 5 miles ( 8 km)
Ceiling: at least 12,000 feet AGL
Clouds: sky clear below 12,000 feet AGL
Weather: no significant weather observed at this time

METAR text: UWLW 220200Z 00000MPS 8000 NSC M01/M04 Q1026 R20/CLRD60 NOSIG RMK QFE764
Conditions at: UWLW (ULYANOVSK , RU) observed 0200 UTC 22 April 2019
Temperature: -1.0°C (30°F)
Dewpoint: -4.0°C (25°F) [RH = 80%]
Pressure (altimeter): 30.30 inches Hg (1026.0 mb)
Winds: calm
Visibility: 5 miles ( 8 km)
Ceiling: at least 12,000 feet AGL
Clouds: sky clear below 12,000 feet AGL
Weather: no significant weather observed at this time

METAR text: UWLW 220100Z 00000MPS 8000 NSC M02/M04 Q1026 R20/CLRD60 NOSIG RMK QFE764
Conditions at: UWLW (ULYANOVSK , RU) observed 0100 UTC 22 April 2019
Temperature: -2.0°C (28°F)
Dewpoint: -4.0°C (25°F) [RH = 86%]
Pressure (altimeter): 30.30 inches Hg (1026.0 mb)
Winds: calm
Visibility: 5 miles ( 8 km)
Ceiling: at least 12,000 feet AGL
Clouds: sky clear below 12,000 feet AGL
Weather: no significant weather observed at this time

METAR text: UWLW 220000Z 20001MPS 8000 NSC M02/M05 Q1026 R20/CLRD60 NOSIG RMK QFE764
Conditions at: UWLW (ULYANOVSK , RU) observed 0000 UTC 22 April 2019
Temperature: -2.0°C (28°F)
Dewpoint: -5.0°C (23°F) [RH = 80%]
Pressure (altimeter): 30.30 inches Hg (1026.0 mb)
Winds: from the SSW (200 degrees) at 2 MPH (2 knots; 1.0 m/s)
Visibility: 5 miles ( 8 km)
Ceiling: at least 12,000 feet AGL
Clouds: sky clear below 12,000 feet AGL
Weather: no significant weather observed at this time

METAR text: UWLW 212300Z 34001MPS 8000 NSC M01/M04 Q1026 R20/CLRD60 NOSIG RMK QFE764
Conditions at: UWLW (ULYANOVSK , RU) observed 2300 UTC 21 April 2019
Temperature: -1.0°C (30°F)
Dewpoint: -4.0°C (25°F) [RH = 80%]
Pressure (altimeter): 30.30 inches Hg (1026.0 mb)
Winds: from the NNW (340 degrees) at 2 MPH (2 knots; 1.0 m/s)
Visibility: 5 miles ( 8 km)
Ceiling: at least 12,000 feet AGL
Clouds: sky clear below 12,000 feet AGL
Weather: no significant weather observed at this time

METAR text: UWLW 212200Z 00000MPS 8000 NSC M01/M04 Q1026 R20/CLRD60 NOSIG RMK QFE764
Conditions at: UWLW (ULYANOVSK , RU) observed 2200 UTC 21 April 2019
Temperature: -1.0°C (30°F)
Dewpoint: -4.0°C (25°F) [RH = 80%]
Pressure (altimeter): 30.30 inches Hg (1026.0 mb)
Winds: calm
Visibility: 5 miles ( 8 km)
Ceiling: at least 12,000 feet AGL
Clouds: sky clear below 12,000 feet AGL
Weather: no significant weather observed at this time

METAR text: UWLW 212100Z 00000MPS 8000 NSC 01/M04 Q1026 R20/CLRD60 NOSIG RMK QFE764
Conditions at: UWLW (ULYANOVSK , RU) observed 2100 UTC 21 April 2019
Temperature: 1.0°C (34°F)
Dewpoint: -4.0°C (25°F) [RH = 69%]
Pressure (altimeter): 30.30 inches Hg (1026.0 mb)
Winds: calm
Visibility: 5 miles ( 8 km)
Ceiling: at least 12,000 feet AGL
Clouds: sky clear below 12,000 feet AGL
Weather: no significant weather observed at this time

METAR text: UWLW 212000Z 29002MPS 8000 NSC 02/M02 Q1025 R02/CLRD60 NOSIG RMK QFE762
Conditions at: UWLW (ULYANOVSK , RU) observed 2000 UTC 21 April 2019
Temperature: 2.0°C (36°F)
Dewpoint: -2.0°C (28°F) [RH = 75%]
Pressure (altimeter): 30.27 inches Hg (1025.0 mb)
Winds: from the WNW (290 degrees) at 5 MPH (4 knots; 2.1 m/s)
Visibility: 5 miles ( 8 km)
Ceiling: at least 12,000 feet AGL
Clouds: sky clear below 12,000 feet AGL
Weather: no significant weather observed at this time

METAR text: UWLW 211900Z 29002MPS 8000 NSC 01/M03 Q1025 R02/CLRD60 NOSIG RMK QFE762
Conditions at: UWLW (ULYANOVSK , RU) observed 1900 UTC 21 April 2019
Temperature: 1.0°C (34°F)
Dewpoint: -3.0°C (27°F) [RH = 75%]
Pressure (altimeter): 30.27 inches Hg (1025.0 mb)
Winds: from the WNW (290 degrees) at 5 MPH (4 knots; 2.1 m/s)
Visibility: 5 miles ( 8 km)
Ceiling: at least 12,000 feet AGL
Clouds: sky clear below 12,000 feet AGL
Weather: no significant weather observed at this time

METAR text: UWLW 211800Z 28002MPS 8000 NSC 03/M04 Q1025 R02/CLRD60 NOSIG RMK QFE762
Conditions at: UWLW (ULYANOVSK , RU) observed 1800 UTC 21 April 2019
Temperature: 3.0°C (37°F)
Dewpoint: -4.0°C (25°F) [RH = 60%]
Pressure (altimeter): 30.27 inches Hg (1025.0 mb)
Winds: from the W (280 degrees) at 5 MPH (4 knots; 2.1 m/s)
Visibility: 5 miles ( 8 km)
Ceiling: at least 12,000 feet AGL
Clouds: sky clear below 12,000 feet AGL
Weather: no significant weather observed at this time

METAR text: UWLW 211700Z 03002MPS 8000 NSC 07/M03 Q1025 R02/CLRD60 NOSIG RMK QFE762
Conditions at: UWLW (ULYANOVSK , RU) observed 1700 UTC 21 April 2019
Temperature: 7.0°C (45°F)
Dewpoint: -3.0°C (27°F) [RH = 49%]
Pressure (altimeter): 30.27 inches Hg (1025.0 mb)
Winds: from the NNE (30 degrees) at 5 MPH (4 knots; 2.1 m/s)
Visibility: 5 miles ( 8 km)
Ceiling: at least 12,000 feet AGL
Clouds: sky clear below 12,000 feet AGL
Weather: no significant weather observed at this time

METAR text: UWLW 211600Z 05004MPS 8000 NSC 08/M04 Q1025 R02/CLRD60 NOSIG RMK QFE762
Conditions at: UWLW (ULYANOVSK , RU) observed 1600 UTC 21 April 2019
Temperature: 8.0°C (46°F)
Dewpoint: -4.0°C (25°F) [RH = 42%]
Pressure (altimeter): 30.27 inches Hg (1025.0 mb)
Winds: from the NE (50 degrees) at 9 MPH (8 knots; 4.1 m/s)
Visibility: 5 miles ( 8 km)
Ceiling: at least 12,000 feet AGL
Clouds: sky clear below 12,000 feet AGL
Weather: no significant weather observed at this time

METAR text: UWLW 211500Z 03005MPS 8000 NSC 11/M04 Q1025 R02/CLRD60 NOSIG RMK QFE761
Conditions at: UWLW (ULYANOVSK , RU) observed 1500 UTC 21 April 2019
Temperature: 11.0°C (52°F)
Dewpoint: -4.0°C (25°F) [RH = 35%]
Pressure (altimeter): 30.27 inches Hg (1025.0 mb)
Winds: from the NNE (30 degrees) at 12 MPH (10 knots; 5.1 m/s)
Visibility: 5 miles ( 8 km)
Ceiling: at least 12,000 feet AGL
Clouds: sky clear below 12,000 feet AGL
Weather: no significant weather observed at this time

METAR text: UWLW 211400Z 01005MPS 8000 NSC 12/M03 Q1025 R02/CLRD60 NOSIG RMK QFE762
Conditions at: UWLW (ULYANOVSK , RU) observed 1400 UTC 21 April 2019
Temperature: 12.0°C (54°F)
Dewpoint: -3.0°C (27°F) [RH = 35%]
Pressure (altimeter): 30.27 inches Hg (1025.0 mb)
Winds: from the N (10 degrees) at 12 MPH (10 knots; 5.1 m/s)
Visibility: 5 miles ( 8 km)
Ceiling: at least 12,000 feet AGL
Clouds: sky clear below 12,000 feet AGL
Weather: no significant weather observed at this time

METAR text: UWLW 211300Z 36007MPS 8000 NSC 12/M04 Q1025 R02/CLRD60 NOSIG RMK QFE762
Conditions at: UWLW (ULYANOVSK , RU) observed 1300 UTC 21 April 2019
Temperature: 12.0°C (54°F)
Dewpoint: -4.0°C (25°F) [RH = 32%]
Pressure (altimeter): 30.27 inches Hg (1025.0 mb)
Winds: from the N (360 degrees) at 16 MPH (14 knots; 7.2 m/s)
Visibility: 5 miles ( 8 km)
Ceiling: at least 12,000 feet AGL
Clouds: sky clear below 12,000 feet AGL
Weather: no significant weather observed at this time

METAR text: UWLW 211200Z 01007MPS 8000 NSC 12/M04 Q1025 R02/CLRD60 NOSIG RMK QFE762
Conditions at: UWLW (ULYANOVSK , RU) observed 1200 UTC 21 April 2019
Temperature: 12.0°C (54°F)
Dewpoint: -4.0°C (25°F) [RH = 32%]
Pressure (altimeter): 30.27 inches Hg (1025.0 mb)
Winds: from the N (10 degrees) at 16 MPH (14 knots; 7.2 m/s)
Visibility: 5 miles ( 8 km)
Ceiling: at least 12,000 feet AGL
Clouds: sky clear below 12,000 feet AGL
Weather: no significant weather observed at this time

METAR text: UWLW 211100Z 02007MPS 8000 NSC 12/M04 Q1026 R02/CLRD60 NOSIG RMK QFE762
Conditions at: UWLW (ULYANOVSK , RU) observed 1100 UTC 21 April 2019
Temperature: 12.0°C (54°F)
Dewpoint: -4.0°C (25°F) [RH = 32%]
Pressure (altimeter): 30.30 inches Hg (1026.0 mb)
Winds: from the NNE (20 degrees) at 16 MPH (14 knots; 7.2 m/s)
Visibility: 5 miles ( 8 km)
Ceiling: at least 12,000 feet AGL
Clouds: sky clear below 12,000 feet AGL
Weather: no significant weather observed at this time

METAR text: UWLW 211000Z 36008MPS 8000 NSC 11/M04 Q1026 R02/CLRD60 NOSIG RMK QFE763
Conditions at: UWLW (ULYANOVSK , RU) observed 1000 UTC 21 April 2019
Temperature: 11.0°C (52°F)
Dewpoint: -4.0°C (25°F) [RH = 35%]
Pressure (altimeter): 30.30 inches Hg (1026.0 mb)
Winds: from the N (360 degrees) at 18 MPH (16 knots; 8.2 m/s)
Visibility: 5 miles ( 8 km)
Ceiling: at least 12,000 feet AGL
Clouds: sky clear below 12,000 feet AGL
Weather: no significant weather observed at this time

METAR text: UWLW 210900Z 01007MPS 8000 NSC 11/M04 Q1026 R02/CLRD60 NOSIG RMK QFE763
Conditions at: UWLW (ULYANOVSK , RU) observed 0900 UTC 21 April 2019
Temperature: 11.0°C (52°F)
Dewpoint: -4.0°C (25°F) [RH = 35%]
Pressure (altimeter): 30.30 inches Hg (1026.0 mb)
Winds: from the N (10 degrees) at 16 MPH (14 knots; 7.2 m/s)
Visibility: 5 miles ( 8 km)
Ceiling: at least 12,000 feet AGL
Clouds: sky clear below 12,000 feet AGL
Weather: no significant weather observed at this time

METAR text: UWLW 210800Z 36007MPS 8000 NSC 11/M04 Q1027 R20/CLRD60 NOSIG RMK QFE764
Conditions at: UWLW (ULYANOVSK , RU) observed 0800 UTC 21 April 2019
Temperature: 11.0°C (52°F)
Dewpoint: -4.0°C (25°F) [RH = 35%]
Pressure (altimeter): 30.32 inches Hg (1027.0 mb)
Winds: from the N (360 degrees) at 16 MPH (14 knots; 7.2 m/s)
Visibility: 5 miles ( 8 km)
Ceiling: at least 12,000 feet AGL
Clouds: sky clear below 12,000 feet AGL
Weather: no significant weather observed at this time

METAR text: UWLW 210700Z 01005MPS 8000 NSC 10/M03 Q1027 R20/CLRD60 NOSIG RMK QFE764
Conditions at: UWLW (ULYANOVSK , RU) observed 0700 UTC 21 April 2019
Temperature: 10.0°C (50°F)
Dewpoint: -3.0°C (27°F) [RH = 40%]
Pressure (altimeter): 30.32 inches Hg (1027.0 mb)
Winds: from the N (10 degrees) at 12 MPH (10 knots; 5.1 m/s)
Visibility: 5 miles ( 8 km)
Ceiling: at least 12,000 feet AGL
Clouds: sky clear below 12,000 feet AGL
Weather: no significant weather observed at this time

METAR text: UWLW 210600Z 36006MPS 8000 NSC 10/M04 Q1026 R20/CLRD60 NOSIG RMK QFE764
Conditions at: UWLW (ULYANOVSK , RU) observed 0600 UTC 21 April 2019
Temperature: 10.0°C (50°F)
Dewpoint: -4.0°C (25°F) [RH = 37%]
Pressure (altimeter): 30.30 inches Hg (1026.0 mb)
Winds: from the N (360 degrees) at 14 MPH (12 knots; 6.2 m/s)
Visibility: 5 miles ( 8 km)
Ceiling: at least 12,000 feet AGL
Clouds: sky clear below 12,000 feet AGL
Weather: no significant weather observed at this time

METAR text: UWLW 210500Z 01004MPS 8000 NSC 08/M04 Q1026 R20/CLRD60 NOSIG RMK QFE764
Conditions at: UWLW (ULYANOVSK , RU) observed 0500 UTC 21 April 2019
Temperature: 8.0°C (46°F)
Dewpoint: -4.0°C (25°F) [RH = 42%]
Pressure (altimeter): 30.30 inches Hg (1026.0 mb)
Winds: from the N (10 degrees) at 9 MPH (8 knots; 4.1 m/s)
Visibility: 5 miles ( 8 km)
Ceiling: at least 12,000 feet AGL
Clouds: sky clear below 12,000 feet AGL
Weather: no significant weather observed at this time

METAR text: UWLW 210400Z 29001MPS 8000 NSC 07/M04 Q1026 R20/CLRD60 NOSIG RMK QFE764
Conditions at: UWLW (ULYANOVSK , RU) observed 0400 UTC 21 April 2019
Temperature: 7.0°C (45°F)
Dewpoint: -4.0°C (25°F) [RH = 45%]
Pressure (altimeter): 30.30 inches Hg (1026.0 mb)
Winds: from the WNW (290 degrees) at 2 MPH (2 knots; 1.0 m/s)
Visibility: 5 miles ( 8 km)
Ceiling: at least 12,000 feet AGL
Clouds: sky clear below 12,000 feet AGL
Weather: no significant weather observed at this time

Forecast for: UWLW (ULYANOVSK , RU)
Text: TAF UWLW 221345Z 2215/2315 29003MPS 8000 SCT033
Forecast period: 1500 UTC 22 April 2019 to 0300 UTC 23 April 2019
Forecast type: FROM: standard forecast or significant change
Winds: from the WNW (290 degrees) at 7 MPH (6 knots; 3.1 m/s)
Visibility: 5 miles (8 km)
Ceiling: at least 12,000 feet AGL
Clouds: scattered clouds at 3300 feet AGL
Weather: no significant weather forecast for this period
Text: TEMPO 2215/2218 34003G09MPS
Forecast period: 1500 to 1800 UTC 22 April 2019
Forecast type: TEMPORARY: The following changes expected for less than half the time period
Winds: from the NNW (340 degrees) at 7 MPH (6 knots; 3.1 m/s)
gusting to 20 MPH (17 knots; 8.7 m/s)
Visibility: missing
Ceiling: unknown
Clouds: missing
Weather: no significant weather forecast for this period
Text: BECMG 2303/2304 33003MPS
Forecast period: 0300 to 1500 UTC 23 April 2019
Forecast type: BECOMING: Conditions expected to become as follows by 0400 UTC 23 April 2019
Winds: from the NNW (330 degrees) at 7 MPH (6 knots; 3.1 m/s)
Visibility: 5 miles (8 km)
Ceiling: at least 12,000 feet AGL
Clouds: scattered clouds at 3300 feet AGL
Weather: no significant weather forecast for this period
Text: TEMPO 2304/2315 01005G10MPS
Forecast period: 0400 to 1500 UTC 23 April 2019
Forecast type: TEMPORARY: The following changes expected for less than half the time period
Winds: from the N (10 degrees) at 12 MPH (10 knots; 5.1 m/s)
gusting to 22 MPH (19 knots; 9.8 m/s)
Visibility: missing
Ceiling: unknown
Clouds: missing
Weather: no significant weather forecast for this period